Time;durP1;ratioP1;P1;durP2;ratioP2;P2;SDS_P1;SDS_P2;PMS_P1;PMS_P2;Temp;Humidity;BMP_temperature;BMP_pressure;BME280_temperature;BME280_humidity;BME280_pressure;Samples;Min_cycle;Max_cycle;Signal;HPM_P1;HPM_P2
2022/11/23 00:01:29;;;;;;;0.40;0.40;;;1.60;99.90;;;;;;5010750;28;20438;-87
2022/11/23 00:03:57;;;;;;;0.40;0.40;;;1.60;99.90;;;;;;5007869;28;20572;-85
2022/11/23 00:06:24;;;;;;;0.50;0.50;;;1.60;99.90;;;;;;5007456;28;20455;-85
2022/11/23 00:08:50;;;;;;;0.40;0.40;;;1.60;99.90;;;;;;4999871;28;20535;-85
2022/11/23 00:11:17;;;;;;;0.50;0.50;;;1.60;99.90;;;;;;4998928;28;20447;-85
2022/11/23 00:13:43;;;;;;;0.40;0.40;;;1.60;99.90;;;;;;5002079;28;20479;-88
2022/11/23 00:16:15;;;;;;;0.60;0.60;;;1.60;99.90;;;;;;5003170;28;20448;-88
2022/11/23 00:18:41;;;;;;;0.50;0.50;;;1.60;99.90;;;;;;5001438;28;20196;-85
2022/11/23 00:21:09;;;;;;;0.60;0.60;;;1.60;99.90;;;;;;5002752;28;20862;-85
2022/11/23 00:23:36;;;;;;;0.50;0.50;;;1.60;99.90;;;;;;4997008;28;20931;-85
2022/11/23 00:26:02;;;;;;;0.40;0.40;;;1.70;99.90;;;;;;5001462;28;20447;-85
2022/11/23 00:28:27;;;;;;;0.50;0.50;;;1.70;99.90;;;;;;4995977;28;20458;-85
2022/11/23 00:30:53;;;;;;;0.50;0.50;;;1.70;99.90;;;;;;4994027;28;20435;-86
2022/11/23 00:33:18;;;;;;;0.60;0.60;;;1.70;99.90;;;;;;4998936;28;20245;-84
2022/11/23 00:35:44;;;;;;;0.40;0.40;;;1.70;99.90;;;;;;5001348;28;20184;-84
2022/11/23 00:38:10;;;;;;;0.50;0.50;;;1.70;99.90;;;;;;5002639;28;20191;-85
2022/11/23 00:40:35;;;;;;;0.40;0.40;;;1.70;99.90;;;;;;5006037;28;20199;-85
2022/11/23 00:43:01;;;;;;;0.40;0.40;;;1.70;99.90;;;;;;5005722;28;20447;-85
2022/11/23 00:45:26;;;;;;;0.50;0.50;;;1.70;99.90;;;;;;4993697;28;20691;-85
2022/11/23 00:47:52;;;;;;;0.50;0.50;;;1.70;99.90;;;;;;5011336;28;20184;-85
2022/11/23 00:50:17;;;;;;;0.47;0.47;;;1.70;99.90;;;;;;5017827;28;20208;-84
2022/11/23 00:52:43;;;;;;;0.50;0.50;;;1.70;99.90;;;;;;5014355;28;20223;-84
2022/11/23 00:55:09;;;;;;;0.50;0.50;;;1.70;99.90;;;;;;5010649;28;20242;-85
2022/11/23 00:57:34;;;;;;;0.40;0.40;;;1.70;99.90;;;;;;4993083;28;20263;-85
2022/11/23 01:00:00;;;;;;;0.40;0.40;;;1.60;99.90;;;;;;5015650;28;20199;-85
2022/11/23 01:02:26;;;;;;;0.50;0.50;;;1.60;99.90;;;;;;5001630;28;20192;-86
2022/11/23 01:04:52;;;;;;;0.40;0.40;;;1.60;99.90;;;;;;5019111;28;20430;-85
2022/11/23 01:07:17;;;;;;;0.47;0.47;;;1.60;99.90;;;;;;5023196;28;20548;-84
2022/11/23 01:09:43;;;;;;;0.50;0.50;;;1.60;99.90;;;;;;5009623;28;20330;-85
2022/11/23 01:12:08;;;;;;;0.50;0.50;;;1.60;99.90;;;;;;5004506;28;20198;-86
2022/11/23 01:14:34;;;;;;;0.50;0.50;;;1.70;99.90;;;;;;5000159;28;20808;-85
2022/11/23 01:16:59;;;;;;;0.50;0.50;;;1.60;99.90;;;;;;5005231;28;20652;-85
2022/11/23 01:19:25;;;;;;;0.50;0.50;;;1.70;99.90;;;;;;5016749;28;20559;-86
2022/11/23 01:21:52;;;;;;;0.50;0.50;;;1.70;99.90;;;;;;5008305;28;20198;-85
2022/11/23 01:24:20;;;;;;;0.50;0.50;;;1.70;99.90;;;;;;5003925;28;20189;-86
2022/11/23 01:26:50;;;;;;;0.50;0.50;;;1.70;99.90;;;;;;5004482;28;20934;-85
2022/11/23 01:29:15;;;;;;;0.60;0.60;;;1.70;99.90;;;;;;5012158;28;20446;-85
2022/11/23 01:31:41;;;;;;;0.30;0.30;;;1.70;99.90;;;;;;4996976;28;20451;-85
2022/11/23 01:34:10;;;;;;;0.50;0.50;;;1.70;99.90;;;;;;5002054;28;21191;-86
2022/11/23 01:36:35;;;;;;;0.40;0.40;;;1.70;99.90;;;;;;5005932;28;20199;-85
2022/11/23 01:39:02;;;;;;;0.50;0.50;;;1.70;99.90;;;;;;5005741;28;20462;-85
2022/11/23 01:41:37;;;;;;;0.50;0.50;;;1.80;99.90;;;;;;4988923;28;20251;-85
2022/11/23 01:44:26;;;;;;;0.40;0.40;;;1.80;99.90;;;;;;5002644;28;20459;-84
2022/11/23 01:46:52;;;;;;;0.40;0.40;;;1.80;99.90;;;;;;4997798;28;20978;-85
2022/11/23 01:49:17;;;;;;;0.50;0.50;;;1.80;99.90;;;;;;5008609;28;20470;-85
2022/11/23 01:51:47;;;;;;;0.40;0.40;;;1.90;99.90;;;;;;4993623;28;20250;-84
2022/11/23 01:54:14;;;;;;;0.40;0.40;;;1.90;99.90;;;;;;5014969;28;20486;-84
2022/11/23 01:56:46;;;;;;;0.40;0.40;;;1.90;99.90;;;;;;5004091;28;20578;-84
2022/11/23 01:59:15;;;;;;;0.40;0.40;;;1.80;99.90;;;;;;4999692;28;20451;-85
2022/11/23 02:01:41;;;;;;;0.40;0.40;;;1.80;99.90;;;;;;5006749;28;20444;-84
2022/11/23 02:04:12;;;;;;;0.50;0.50;;;1.90;99.90;;;;;;5013045;28;20541;-85
2022/11/23 02:06:39;;;;;;;0.40;0.40;;;1.90;99.90;;;;;;5005591;28;20996;-85
2022/11/23 02:09:05;;;;;;;0.40;0.40;;;1.90;99.90;;;;;;5002874;28;20474;-85
2022/11/23 02:11:31;;;;;;;0.50;0.50;;;1.90;99.90;;;;;;5006403;28;20446;-84
2022/11/23 02:13:57;;;;;;;0.43;0.43;;;1.90;99.90;;;;;;5002610;28;20483;-84
2022/11/23 02:16:22;;;;;;;0.50;0.50;;;1.90;99.90;;;;;;5010310;28;20184;-87
2022/11/23 02:18:49;;;;;;;0.50;0.50;;;2.00;99.90;;;;;;4990766;28;20203;-87
2022/11/23 02:21:15;;;;;;;0.50;0.50;;;2.00;99.90;;;;;;5011084;28;20188;-86
2022/11/23 02:23:48;;;;;;;0.40;0.40;;;2.00;99.90;;;;;;5011834;28;20450;-87
2022/11/23 02:26:26;;;;;;;0.50;0.50;;;2.00;99.90;;;;;;5017220;28;20267;-87
2022/11/23 02:28:57;;;;;;;0.50;0.50;;;2.00;99.90;;;;;;5010926;28;20454;-87
2022/11/23 02:31:23;;;;;;;0.40;0.40;;;2.00;99.90;;;;;;5006033;28;20502;-87
2022/11/23 02:33:48;;;;;;;0.40;0.40;;;2.00;99.90;;;;;;5012071;28;20985;-87
2022/11/23 02:36:54;;;;;;;0.50;0.50;;;2.00;99.90;;;;;;5026349;28;20184;-87
2022/11/23 02:39:22;;;;;;;0.50;0.50;;;2.10;99.90;;;;;;5006287;28;20310;-87
2022/11/23 02:41:51;;;;;;;0.43;0.43;;;2.10;99.90;;;;;;5004505;28;20443;-87
2022/11/23 02:44:31;;;;;;;0.40;0.40;;;2.10;99.90;;;;;;4996980;28;20791;-87
2022/11/23 02:46:57;;;;;;;0.40;0.40;;;2.10;99.90;;;;;;5005927;28;20437;-88
2022/11/23 02:49:23;;;;;;;0.50;0.50;;;2.10;99.90;;;;;;4997368;28;20443;-86
2022/11/23 02:51:48;;;;;;;0.60;0.60;;;2.10;99.90;;;;;;5021817;28;20891;-87
2022/11/23 02:54:14;;;;;;;0.40;0.40;;;2.20;99.90;;;;;;5014843;28;20485;-87
2022/11/23 02:56:40;;;;;;;0.37;0.37;;;2.20;99.90;;;;;;5008858;28;20197;-87
2022/11/23 02:59:05;;;;;;;0.50;0.50;;;2.20;99.90;;;;;;5023405;28;20224;-87
2022/11/23 03:01:31;;;;;;;0.40;0.40;;;2.20;99.90;;;;;;4993562;28;22206;-85
2022/11/23 03:03:56;;;;;;;0.50;0.50;;;2.20;99.90;;;;;;5013763;28;20188;-86
2022/11/23 03:06:22;;;;;;;0.40;0.40;;;2.20;99.90;;;;;;5005007;28;20188;-86
2022/11/23 03:08:47;;;;;;;0.40;0.40;;;2.20;99.90;;;;;;5011331;28;20283;-87
2022/11/23 03:11:13;;;;;;;0.50;0.50;;;2.20;99.90;;;;;;5010051;28;20636;-87
2022/11/23 03:13:38;;;;;;;0.40;0.40;;;2.20;99.90;;;;;;5006672;28;20223;-87
2022/11/23 03:16:04;;;;;;;0.50;0.50;;;2.20;99.90;;;;;;5010370;28;20602;-86
2022/11/23 03:18:30;;;;;;;0.50;0.50;;;2.20;99.90;;;;;;5008864;28;20195;-87
2022/11/23 03:21:04;;;;;;;0.50;0.50;;;2.20;99.90;;;;;;5006619;28;20708;-87
2022/11/23 03:23:30;;;;;;;0.50;0.50;;;2.20;99.90;;;;;;5027414;28;20192;-87
2022/11/23 03:25:57;;;;;;;0.47;0.47;;;2.20;99.90;;;;;;5005602;28;20447;-87
2022/11/23 03:28:23;;;;;;;0.50;0.50;;;2.30;99.90;;;;;;5002692;28;20550;-87
2022/11/23 03:30:48;;;;;;;0.50;0.50;;;2.20;99.90;;;;;;5005462;28;22621;-86
2022/11/23 03:33:14;;;;;;;0.50;0.50;;;2.20;99.90;;;;;;5020660;28;20574;-87
2022/11/23 03:35:39;;;;;;;0.50;0.50;;;2.20;99.90;;;;;;4998997;28;20192;-88
2022/11/23 03:38:05;;;;;;;0.50;0.50;;;2.30;99.90;;;;;;5005896;28;20589;-87
2022/11/23 03:40:30;;;;;;;0.40;0.40;;;2.20;99.90;;;;;;5014944;28;20200;-87
2022/11/23 03:42:56;;;;;;;0.40;0.40;;;2.20;99.90;;;;;;5009926;28;20235;-87
2022/11/23 03:45:21;;;;;;;0.50;0.50;;;2.30;99.90;;;;;;5008707;28;21974;-88
2022/11/23 03:47:47;;;;;;;0.50;0.50;;;2.30;99.90;;;;;;5011424;28;20446;-86
2022/11/23 03:50:12;;;;;;;0.50;0.50;;;2.30;99.90;;;;;;5006339;28;20184;-87
2022/11/23 03:52:39;;;;;;;0.50;0.50;;;2.30;99.90;;;;;;5006897;28;20224;-87
2022/11/23 03:55:05;;;;;;;0.47;0.47;;;2.30;99.90;;;;;;5024583;28;20455;-88
2022/11/23 03:57:30;;;;;;;0.47;0.47;;;2.30;99.90;;;;;;5013389;28;20750;-87
2022/11/23 03:59:56;;;;;;;0.50;0.50;;;2.30;99.90;;;;;;5005363;28;20528;-87
2022/11/23 04:02:21;;;;;;;0.40;0.40;;;2.30;99.90;;;;;;5013486;28;20180;-87
2022/11/23 04:04:47;;;;;;;0.40;0.40;;;2.30;99.90;;;;;;5007850;28;20552;-86
2022/11/23 04:07:12;;;;;;;0.50;0.50;;;2.30;99.90;;;;;;5003437;28;20187;-87
2022/11/23 04:09:38;;;;;;;0.50;0.50;;;2.30;99.90;;;;;;5004750;28;20192;-87
2022/11/23 04:12:03;;;;;;;0.50;0.50;;;2.30;99.90;;;;;;5003101;28;20196;-86
2022/11/23 04:14:29;;;;;;;0.40;0.40;;;2.30;99.90;;;;;;4999324;28;20223;-87
2022/11/23 04:16:54;;;;;;;0.50;0.50;;;2.30;99.90;;;;;;5001097;28;20180;-87
2022/11/23 04:19:20;;;;;;;0.40;0.40;;;2.30;99.90;;;;;;5001167;28;20204;-87
2022/11/23 04:21:45;;;;;;;0.50;0.50;;;2.30;99.90;;;;;;5008942;28;20640;-86
2022/11/23 04:24:11;;;;;;;0.40;0.40;;;2.30;99.90;;;;;;5008720;28;20191;-87
2022/11/23 04:26:36;;;;;;;0.33;0.33;;;2.30;99.90;;;;;;5018706;28;20280;-87
2022/11/23 04:29:02;;;;;;;0.43;0.43;;;2.40;99.90;;;;;;5004126;28;20211;-87
2022/11/23 04:31:28;;;;;;;0.40;0.40;;;2.40;99.90;;;;;;4984867;28;20199;-87
2022/11/23 04:33:55;;;;;;;0.40;0.40;;;2.40;99.90;;;;;;5003298;28;20242;-87
2022/11/23 04:36:21;;;;;;;0.50;0.50;;;2.40;99.90;;;;;;4992857;28;20271;-88
2022/11/23 04:38:46;;;;;;;0.40;0.40;;;2.40;99.90;;;;;;5006924;28;20570;-86
2022/11/23 04:41:11;;;;;;;0.50;0.50;;;2.40;99.90;;;;;;5008856;28;20271;-87
2022/11/23 04:43:37;;;;;;;0.50;0.50;;;2.40;99.90;;;;;;5004759;28;20193;-86
2022/11/23 04:46:03;;;;;;;0.50;0.50;;;2.40;99.90;;;;;;5009831;28;20195;-87
2022/11/23 04:48:28;;;;;;;0.43;0.43;;;2.40;99.90;;;;;;5007502;28;20199;-87
2022/11/23 04:50:54;;;;;;;0.50;0.50;;;2.40;99.90;;;;;;5007727;28;20236;-86
2022/11/23 04:53:19;;;;;;;0.40;0.40;;;2.50;99.90;;;;;;5014945;28;20964;-86
2022/11/23 04:55:46;;;;;;;0.40;0.40;;;2.50;99.90;;;;;;5007469;28;20304;-87
2022/11/23 04:58:11;;;;;;;0.47;0.47;;;2.50;99.90;;;;;;5005814;28;20326;-87
2022/11/23 05:00:37;;;;;;;0.40;0.40;;;2.50;99.90;;;;;;5005564;28;20487;-87
2022/11/23 05:03:02;;;;;;;0.40;0.40;;;2.50;99.90;;;;;;5007875;28;20192;-87
2022/11/23 05:05:28;;;;;;;0.40;0.40;;;2.60;99.90;;;;;;4990800;28;20197;-87
2022/11/23 05:07:54;;;;;;;0.50;0.50;;;2.60;99.90;;;;;;5008775;28;20644;-88
2022/11/23 05:10:19;;;;;;;0.47;0.47;;;2.60;99.90;;;;;;5004686;28;20193;-87
2022/11/23 05:12:45;;;;;;;0.50;0.50;;;2.60;99.90;;;;;;5005347;28;20216;-87
2022/11/23 05:15:13;;;;;;;0.40;0.40;;;2.60;99.90;;;;;;5007926;28;20184;-87
2022/11/23 05:17:38;;;;;;;0.40;0.40;;;2.60;99.90;;;;;;5010967;28;20191;-88
2022/11/23 05:20:05;;;;;;;0.40;0.40;;;2.70;99.90;;;;;;5008825;28;21076;-88
2022/11/23 05:22:30;;;;;;;0.40;0.40;;;2.70;99.90;;;;;;5009376;28;20188;-88
2022/11/23 05:24:56;;;;;;;0.50;0.50;;;2.70;99.90;;;;;;5012022;28;20494;-87
2022/11/23 05:27:21;;;;;;;0.50;0.50;;;2.80;99.90;;;;;;5012715;28;20195;-87
2022/11/23 05:29:47;;;;;;;0.40;0.40;;;2.70;99.90;;;;;;5017961;28;20280;-87
2022/11/23 05:32:12;;;;;;;0.40;0.40;;;2.80;99.90;;;;;;5025447;28;20184;-89
2022/11/23 05:34:38;;;;;;;0.40;0.40;;;2.80;99.90;;;;;;5011098;28;20184;-87
2022/11/23 05:37:03;;;;;;;0.40;0.40;;;2.80;99.90;;;;;;5008971;28;20950;-87
2022/11/23 05:39:28;;;;;;;0.40;0.40;;;2.80;99.90;;;;;;5011395;28;20203;-86
2022/11/23 05:41:54;;;;;;;0.40;0.40;;;2.80;99.90;;;;;;5008443;28;20192;-87
2022/11/23 05:44:19;;;;;;;0.40;0.40;;;2.80;99.90;;;;;;5007969;28;20220;-88
2022/11/23 05:46:45;;;;;;;0.40;0.40;;;2.80;99.90;;;;;;5011498;28;20246;-86
2022/11/23 05:49:10;;;;;;;0.47;0.47;;;2.90;99.90;;;;;;5015705;28;20219;-87
2022/11/23 05:51:36;;;;;;;0.40;0.40;;;2.90;99.90;;;;;;5011771;28;20235;-88
2022/11/23 05:54:01;;;;;;;0.40;0.40;;;2.90;99.90;;;;;;5011293;28;20642;-88
2022/11/23 05:56:27;;;;;;;0.40;0.40;;;2.90;99.90;;;;;;5008459;28;20287;-87
2022/11/23 05:58:55;;;;;;;0.40;0.40;;;2.90;99.90;;;;;;4991223;28;20811;-88
2022/11/23 06:01:21;;;;;;;0.40;0.40;;;3.00;99.90;;;;;;5004269;28;20279;-86
2022/11/23 06:03:48;;;;;;;0.40;0.40;;;3.00;99.90;;;;;;5021211;28;20570;-87
2022/11/23 06:06:13;;;;;;;0.40;0.40;;;3.00;99.90;;;;;;4999543;28;20203;-86
2022/11/23 06:08:39;;;;;;;0.40;0.40;;;3.00;99.90;;;;;;5010048;28;21003;-85
2022/11/23 06:11:05;;;;;;;0.40;0.40;;;3.00;99.90;;;;;;5004017;28;20186;-85
2022/11/23 06:13:30;;;;;;;0.40;0.40;;;2.90;99.90;;;;;;4969664;28;20654;-85
2022/11/23 06:15:56;;;;;;;0.40;0.40;;;3.00;99.90;;;;;;4987601;28;20306;-85
2022/11/23 06:18:22;;;;;;;0.40;0.40;;;2.90;99.90;;;;;;4992959;28;20761;-86
2022/11/23 06:20:47;;;;;;;0.40;0.40;;;2.90;99.90;;;;;;4953772;28;20444;-87
2022/11/23 06:23:13;;;;;;;0.50;0.50;;;2.90;99.90;;;;;;4992115;28;20678;-87
2022/11/23 06:25:39;;;;;;;0.33;0.33;;;2.90;99.90;;;;;;4991287;28;20196;-85
2022/11/23 06:28:05;;;;;;;0.43;0.43;;;2.90;99.90;;;;;;4996421;28;20245;-86
2022/11/23 06:30:30;;;;;;;0.40;0.40;;;2.90;99.90;;;;;;5011326;28;20682;-88
2022/11/23 06:33:01;;;;;;;0.50;0.50;;;2.90;99.90;;;;;;5003334;28;20290;-85
2022/11/23 06:35:26;;;;;;;0.40;0.40;;;2.90;99.90;;;;;;4997960;28;20196;-86
2022/11/23 06:37:53;;;;;;;0.50;0.50;;;2.90;99.90;;;;;;5018382;28;20453;-86
2022/11/23 06:40:19;;;;;;;0.40;0.40;;;2.90;99.90;;;;;;5030266;28;20661;-85
2022/11/23 06:42:44;;;;;;;0.40;0.40;;;2.90;99.90;;;;;;5007454;28;20443;-86
2022/11/23 06:45:11;;;;;;;0.40;0.40;;;2.90;99.90;;;;;;5008990;28;20714;-86
2022/11/23 06:47:36;;;;;;;0.40;0.40;;;2.90;99.90;;;;;;5010093;28;20293;-84
2022/11/23 06:50:02;;;;;;;0.40;0.40;;;2.90;99.90;;;;;;4996374;28;22357;-85
2022/11/23 06:52:27;;;;;;;0.50;0.50;;;3.00;99.90;;;;;;5003940;28;20688;-84
2022/11/23 06:54:53;;;;;;;0.50;0.50;;;3.00;99.90;;;;;;5006168;28;20451;-85
2022/11/23 06:57:19;;;;;;;0.40;0.40;;;3.00;99.90;;;;;;5004298;28;20554;-85
2022/11/23 06:59:44;;;;;;;0.40;0.40;;;3.00;99.90;;;;;;5005697;28;20203;-87
2022/11/23 07:02:10;;;;;;;0.40;0.40;;;3.00;99.90;;;;;;5004194;28;20188;-86
2022/11/23 07:04:36;;;;;;;0.50;0.50;;;3.00;99.90;;;;;;5008417;28;20616;-87
2022/11/23 07:07:01;;;;;;;0.40;0.40;;;3.00;99.90;;;;;;5008992;28;20446;-87
2022/11/23 07:09:27;;;;;;;0.40;0.40;;;3.10;99.90;;;;;;5007370;28;20173;-87
2022/11/23 07:11:53;;;;;;;0.40;0.40;;;3.00;99.90;;;;;;4998367;28;20231;-86
2022/11/23 07:14:18;;;;;;;0.40;0.40;;;3.10;99.90;;;;;;5003330;28;20675;-87
2022/11/23 07:16:44;;;;;;;0.40;0.40;;;3.10;99.90;;;;;;4991575;28;20238;-87
2022/11/23 07:19:09;;;;;;;0.50;0.50;;;3.10;99.90;;;;;;5025094;28;20188;-86
2022/11/23 07:21:35;;;;;;;0.40;0.40;;;3.10;99.90;;;;;;5007337;28;20192;-85
2022/11/23 07:24:00;;;;;;;0.50;0.50;;;3.10;99.90;;;;;;4989621;28;21026;-86
2022/11/23 07:26:27;;;;;;;0.40;0.40;;;3.10;99.90;;;;;;4990266;28;20195;-86
2022/11/23 07:28:53;;;;;;;0.40;0.40;;;3.20;99.90;;;;;;4995997;28;20271;-85
2022/11/23 07:31:18;;;;;;;0.40;0.40;;;3.20;99.90;;;;;;5005539;28;20514;-86
2022/11/23 07:33:44;;;;;;;0.40;0.40;;;3.30;99.90;;;;;;5004878;28;20572;-85
2022/11/23 07:36:10;;;;;;;0.50;0.50;;;3.30;99.90;;;;;;5006375;28;20219;-90
2022/11/23 07:38:36;;;;;;;0.30;0.30;;;3.30;99.90;;;;;;5022621;28;20446;-84
2022/11/23 07:41:02;;;;;;;0.40;0.40;;;3.30;99.90;;;;;;5006410;28;20191;-84
2022/11/23 07:43:28;;;;;;;0.40;0.40;;;3.30;99.90;;;;;;4994575;28;20243;-82
2022/11/23 07:45:55;;;;;;;0.40;0.40;;;3.30;99.90;;;;;;5004479;28;20825;-83
2022/11/23 07:48:21;;;;;;;0.40;0.40;;;3.30;99.90;;;;;;5006277;28;20450;-82
2022/11/23 07:50:46;;;;;;;0.40;0.40;;;3.30;99.90;;;;;;5017390;28;20479;-82
2022/11/23 07:53:12;;;;;;;0.40;0.40;;;3.30;99.90;;;;;;5010237;28;20587;-82
2022/11/23 07:55:37;;;;;;;0.40;0.40;;;3.30;99.90;;;;;;5008917;28;20185;-82
2022/11/23 07:58:04;;;;;;;0.40;0.40;;;3.40;99.90;;;;;;5002136;28;20193;-83
2022/11/23 08:00:30;;;;;;;0.50;0.50;;;3.40;99.90;;;;;;5008617;28;20682;-81
2022/11/23 08:02:58;;;;;;;0.40;0.40;;;3.30;99.90;;;;;;5005829;28;20541;-82
2022/11/23 08:05:25;;;;;;;0.40;0.40;;;3.30;99.90;;;;;;5008623;28;20287;-82
2022/11/23 08:07:51;;;;;;;0.40;0.40;;;3.30;99.90;;;;;;5003147;28;20534;-82
2022/11/23 08:10:16;;;;;;;0.40;0.40;;;3.40;99.90;;;;;;4999565;28;20560;-81
2022/11/23 08:12:42;;;;;;;0.40;0.40;;;3.40;99.90;;;;;;5001637;28;20200;-83
2022/11/23 08:15:08;;;;;;;0.37;0.37;;;3.30;99.90;;;;;;5008249;28;20188;-82
2022/11/23 08:17:33;;;;;;;0.40;0.40;;;3.40;99.90;;;;;;5007021;28;20204;-82
2022/11/23 08:19:59;;;;;;;0.30;0.30;;;3.40;99.90;;;;;;5006627;28;20686;-82
2022/11/23 08:22:26;;;;;;;0.40;0.40;;;3.40;99.90;;;;;;5020777;28;20184;-84
2022/11/23 08:24:51;;;;;;;0.30;0.30;;;3.50;99.90;;;;;;5025687;28;20279;-82
2022/11/23 08:27:17;;;;;;;0.40;0.40;;;3.50;99.90;;;;;;5006351;28;20458;-82
2022/11/23 08:29:42;;;;;;;0.40;0.40;;;3.50;99.90;;;;;;5003190;28;20260;-84
2022/11/23 08:32:08;;;;;;;0.50;0.50;;;3.50;99.90;;;;;;5015625;28;20187;-83
2022/11/23 08:34:33;;;;;;;0.40;0.40;;;3.50;99.90;;;;;;5008552;28;20705;-83
2022/11/23 08:36:59;;;;;;;0.40;0.40;;;3.50;99.90;;;;;;4982350;28;20195;-84
2022/11/23 08:39:24;;;;;;;0.40;0.40;;;3.60;99.90;;;;;;4965004;28;20199;-83
2022/11/23 08:41:49;;;;;;;0.30;0.30;;;3.60;99.90;;;;;;5004841;28;20223;-83
2022/11/23 08:44:15;;;;;;;0.40;0.40;;;3.60;99.90;;;;;;5009595;28;20235;-83
2022/11/23 08:46:41;;;;;;;0.40;0.40;;;3.70;99.90;;;;;;5004030;28;20188;-82
2022/11/23 08:49:06;;;;;;;0.40;0.40;;;3.70;99.90;;;;;;5003978;28;20718;-81
2022/11/23 08:51:32;;;;;;;0.40;0.40;;;3.70;99.90;;;;;;5006515;28;20232;-82
2022/11/23 08:53:58;;;;;;;0.30;0.30;;;3.70;99.90;;;;;;5007423;28;20956;-82
2022/11/23 08:56:24;;;;;;;0.40;0.40;;;3.70;99.90;;;;;;5005416;28;20450;-83
2022/11/23 08:58:49;;;;;;;0.40;0.40;;;3.70;99.90;;;;;;5001580;28;20192;-82
2022/11/23 09:01:16;;;;;;;0.40;0.40;;;3.80;99.90;;;;;;5009006;28;20196;-82
2022/11/23 09:03:42;;;;;;;0.30;0.30;;;3.70;99.90;;;;;;5017418;28;20283;-83
2022/11/23 09:06:08;;;;;;;0.30;0.30;;;3.80;99.90;;;;;;4992345;28;20530;-82
2022/11/23 09:08:34;;;;;;;0.40;0.40;;;3.80;99.90;;;;;;4998320;28;20478;-82
2022/11/23 09:11:01;;;;;;;0.40;0.40;;;3.80;99.90;;;;;;5010831;28;20876;-82
2022/11/23 09:13:28;;;;;;;0.40;0.40;;;3.80;99.90;;;;;;5007034;28;20573;-82
2022/11/23 09:15:57;;;;;;;0.30;0.30;;;3.90;99.90;;;;;;5007963;28;20451;-82
2022/11/23 09:18:24;;;;;;;0.40;0.40;;;3.90;99.90;;;;;;5005605;28;20451;-82
2022/11/23 09:20:49;;;;;;;0.40;0.40;;;3.90;99.90;;;;;;5003749;28;20482;-82
2022/11/23 09:23:15;;;;;;;0.40;0.40;;;3.90;99.90;;;;;;5009513;28;20483;-82
2022/11/23 09:25:42;;;;;;;0.40;0.40;;;3.90;99.90;;;;;;5007034;28;20275;-82
2022/11/23 09:28:07;;;;;;;0.40;0.40;;;3.90;99.90;;;;;;5000422;28;20288;-82
2022/11/23 09:30:33;;;;;;;0.40;0.40;;;3.90;99.90;;;;;;5007040;28;21304;-81
2022/11/23 09:32:59;;;;;;;0.30;0.30;;;4.00;99.90;;;;;;5006580;28;20714;-84
2022/11/23 09:35:24;;;;;;;0.30;0.30;;;4.10;99.90;;;;;;5006963;28;20644;-84
2022/11/23 09:37:57;;;;;;;0.40;0.40;;;4.10;99.90;;;;;;5006154;28;20189;-85
2022/11/23 09:40:28;;;;;;;0.30;0.30;;;4.10;99.90;;;;;;5002770;28;20187;-83
2022/11/23 09:43:24;;;;;;;0.30;0.30;;;4.20;99.90;;;;;;5015978;28;21146;-84
2022/11/23 09:45:53;;;;;;;0.30;0.30;;;4.20;99.90;;;;;;5003888;28;20458;-84
2022/11/23 09:48:53;;;;;;;0.30;0.30;;;4.30;99.90;;;;;;5009731;28;20420;-83
2022/11/23 09:51:21;;;;;;;0.40;0.40;;;4.30;99.90;;;;;;5018550;28;20541;-83
2022/11/23 09:53:54;;;;;;;0.30;0.30;;;4.40;99.90;;;;;;4997662;28;21080;-82
2022/11/23 09:56:24;;;;;;;0.40;0.40;;;4.60;99.90;;;;;;4999905;28;20447;-82
2022/11/23 09:58:56;;;;;;;0.40;0.40;;;4.70;99.90;;;;;;5001432;28;20887;-82
2022/11/23 10:01:23;;;;;;;0.30;0.30;;;4.70;99.90;;;;;;5001331;28;20533;-84
2022/11/23 10:03:48;;;;;;;0.40;0.40;;;4.70;99.90;;;;;;4986627;28;20533;-84
2022/11/23 10:06:20;;;;;;;0.40;0.40;;;4.80;99.90;;;;;;5025682;28;21054;-85
2022/11/23 10:09:11;;;;;;;0.30;0.30;;;4.90;99.90;;;;;;5006178;28;20251;-86
2022/11/23 10:12:00;;;;;;;0.30;0.30;;;5.00;99.90;;;;;;5004140;28;20446;-85
2022/11/23 10:14:25;;;;;;;0.30;0.30;;;4.80;99.90;;;;;;5003112;28;20536;-84
2022/11/23 10:17:13;;;;;;;0.30;0.30;;;4.80;99.90;;;;;;5017453;28;20431;-84
2022/11/23 10:19:57;;;;;;;0.40;0.40;;;4.80;99.90;;;;;;5009123;28;20192;-86
2022/11/23 10:22:32;;;;;;;0.30;0.30;;;5.00;99.90;;;;;;5010525;28;20430;-86
2022/11/23 10:25:00;;;;;;;0.30;0.30;;;5.10;99.90;;;;;;5009586;28;20446;-85
2022/11/23 10:27:28;;;;;;;0.30;0.30;;;5.30;99.90;;;;;;5020934;28;20411;-84
2022/11/23 10:29:55;;;;;;;0.30;0.30;;;5.40;99.90;;;;;;5017729;28;20444;-83
2022/11/23 10:32:36;;;;;;;0.30;0.30;;;5.30;99.90;;;;;;5027479;28;20453;-86
2022/11/23 10:35:25;;;;;;;0.20;0.20;;;5.20;99.90;;;;;;4997730;28;20455;-87
2022/11/23 10:37:51;;;;;;;0.30;0.30;;;5.20;99.90;;;;;;5004679;28;20447;-84
2022/11/23 10:40:20;;;;;;;0.30;0.30;;;5.20;99.90;;;;;;5006387;28;20462;-86
2022/11/23 10:43:13;;;;;;;0.30;0.30;;;5.20;99.90;;;;;;5008694;28;20529;-85
2022/11/23 10:45:38;;;;;;;0.30;0.30;;;5.20;99.90;;;;;;5007159;28;20478;-84
2022/11/23 10:48:04;;;;;;;0.20;0.20;;;5.20;99.90;;;;;;4995183;28;20931;-86
2022/11/23 10:50:36;;;;;;;0.20;0.20;;;5.10;99.90;;;;;;5012042;28;20726;-85
2022/11/23 10:53:04;;;;;;;0.30;0.30;;;5.20;99.90;;;;;;5010826;28;20216;-85
2022/11/23 10:55:46;;;;;;;0.30;0.30;;;5.20;99.90;;;;;;5042873;28;21117;-84
2022/11/23 10:58:42;;;;;;;0.30;0.30;;;5.30;99.90;;;;;;5009287;28;20852;-86
2022/11/23 11:01:12;;;;;;;0.30;0.30;;;5.30;99.90;;;;;;5000024;28;20455;-85
2022/11/23 11:03:38;;;;;;;0.30;0.30;;;5.30;99.90;;;;;;5000658;28;20470;-85
2022/11/23 11:06:04;;;;;;;0.20;0.20;;;5.30;99.90;;;;;;5006927;28;20962;-86
2022/11/23 11:08:33;;;;;;;0.30;0.30;;;5.30;99.90;;;;;;5005579;28;20196;-85
2022/11/23 11:11:20;;;;;;;0.40;0.40;;;5.40;99.90;;;;;;5023615;28;20452;-85
2022/11/23 11:13:47;;;;;;;0.30;0.30;;;5.40;99.90;;;;;;5018753;28;20477;-86
2022/11/23 11:16:25;;;;;;;0.30;0.30;;;5.50;99.90;;;;;;5022960;28;20529;-89
2022/11/23 11:18:50;;;;;;;0.40;0.40;;;5.50;99.90;;;;;;5011793;28;20451;-89
2022/11/23 11:21:32;;;;;;;0.30;0.30;;;5.60;99.90;;;;;;5003042;28;20446;-89
2022/11/23 11:24:04;;;;;;;0.30;0.30;;;5.60;99.90;;;;;;5009648;28;20921;-88
2022/11/23 11:26:33;;;;;;;0.30;0.30;;;5.60;99.90;;;;;;5008512;28;20436;-89
2022/11/23 11:29:08;;;;;;;0.30;0.30;;;5.70;99.90;;;;;;4996220;28;20451;-90
2022/11/23 11:31:57;;;;;;;0.20;0.20;;;5.70;99.90;;;;;;5036102;28;20437;-88
2022/11/23 11:34:48;;;;;;;0.30;0.30;;;5.70;99.90;;;;;;5023404;28;20487;-88
2022/11/23 11:37:45;;;;;;;0.30;0.30;;;5.80;99.90;;;;;;5036878;28;20838;-89
2022/11/23 11:40:34;;;;;;;0.30;0.30;;;5.90;99.90;;;;;;4998308;28;20443;-88
2022/11/23 11:43:16;;;;;;;0.30;0.30;;;5.90;99.90;;;;;;5011242;28;20450;-93
2022/11/23 11:45:44;;;;;;;0.30;0.30;;;6.00;99.90;;;;;;5008747;28;20444;-88
2022/11/23 11:48:39;;;;;;;0.30;0.30;;;6.10;99.90;;;;;;5019461;28;20443;-88
2022/11/23 11:51:30;;;;;;;0.30;0.30;;;6.00;99.90;;;;;;5017473;28;20486;-91
2022/11/23 11:54:05;;;;;;;0.30;0.30;;;6.00;99.90;;;;;;5030193;28;21024;-92
2022/11/23 11:56:56;;;;;;;0.30;0.30;;;6.00;99.90;;;;;;5000292;28;20448;-91
2022/11/23 11:59:32;;;;;;;0.30;0.30;;;5.90;99.90;;;;;;5026625;28;20829;-93
2022/11/23 12:02:14;;;;;;;0.20;0.20;;;5.90;99.90;;;;;;5016605;28;20438;-88
2022/11/23 12:05:09;;;;;;;0.30;0.30;;;6.00;99.90;;;;;;5016130;28;20443;-87
2022/11/23 12:07:42;;;;;;;0.30;0.30;;;6.10;99.90;;;;;;4969024;28;20451;-89
2022/11/23 12:10:19;;;;;;;0.20;0.20;;;6.10;99.90;;;;;;5013536;28;20442;-86
2022/11/23 12:12:47;;;;;;;0.23;0.23;;;6.10;99.90;;;;;;5025307;28;20461;-87
2022/11/23 12:15:53;;;;;;;0.30;0.30;;;6.20;99.90;;;;;;5008847;28;20459;-90
2022/11/23 12:18:51;;;;;;;0.30;0.30;;;6.40;99.90;;;;;;5016245;28;20439;-89
2022/11/23 12:21:54;;;;;;;0.30;0.30;;;6.90;99.90;;;;;;4973455;28;20527;-90
2022/11/23 12:24:39;;;;;;;0.30;0.30;;;7.10;99.90;;;;;;5005146;28;20447;-91
2022/11/23 12:27:35;;;;;;;0.30;0.30;;;7.00;99.90;;;;;;4990399;28;20978;-91
2022/11/23 12:30:32;;;;;;;0.20;0.20;;;6.90;99.90;;;;;;4982446;28;20458;-90
2022/11/23 12:33:22;;;;;;;0.27;0.27;;;6.60;99.90;;;;;;5002673;28;20467;-90
2022/11/23 12:36:12;;;;;;;0.20;0.20;;;6.60;99.90;;;;;;5008078;28;20455;-88
2022/11/23 12:39:08;;;;;;;0.27;0.27;;;6.60;99.90;;;;;;5008491;28;20802;-92
2022/11/23 12:41:50;;;;;;;0.27;0.27;;;6.60;99.90;;;;;;5023831;28;20475;-91
2022/11/23 12:44:50;;;;;;;0.20;0.20;;;6.50;99.90;;;;;;5008959;28;20495;-89
2022/11/23 12:48:01;;;;;;;0.20;0.20;;;6.50;99.90;;;;;;5006512;28;20454;-90
2022/11/23 12:51:01;;;;;;;0.27;0.27;;;6.50;99.90;;;;;;4996351;28;21493;-86
2022/11/23 12:53:59;;;;;;;0.30;0.30;;;6.40;99.90;;;;;;4999652;28;20491;-91
2022/11/23 12:56:44;;;;;;;0.30;0.30;;;6.40;99.90;;;;;;5003420;28;20439;-88
2022/11/23 12:59:12;;;;;;;0.20;0.20;;;6.70;99.90;;;;;;4978877;28;20997;-89
2022/11/23 13:01:43;;;;;;;0.20;0.20;;;6.90;99.90;;;;;;5001693;28;20881;-91
2022/11/23 13:04:35;;;;;;;0.30;0.30;;;6.90;99.90;;;;;;4995491;28;20443;-89
2022/11/23 13:07:12;;;;;;;0.30;0.30;;;6.80;99.90;;;;;;4995026;28;21268;-89
2022/11/23 13:10:07;;;;;;;0.20;0.20;;;6.70;99.90;;;;;;5008897;28;20430;-93
2022/11/23 13:12:41;;;;;;;0.30;0.30;;;6.60;99.90;;;;;;5009984;28;20443;-90